createdAt,value
2023-10-20T00:04:41.535Z,100408.78
2023-10-20T00:09:44.021Z,100428.72
2023-10-20T00:14:46.477Z,100436.78
2023-10-20T00:19:49.283Z,100389.94
2023-10-20T00:24:52.173Z,100427.78
2023-10-20T00:29:54.524Z,100418.75
2023-10-20T00:34:56.854Z,100407.34
2023-10-20T00:39:59.663Z,100442.97
2023-10-20T00:45:01.944Z,100429.94
2023-10-20T00:50:06.412Z,100429.25
2023-10-20T00:55:10.002Z,100410.50
2023-10-20T01:00:12.920Z,100412.31
2023-10-20T01:05:24.542Z,100419.94
2023-10-20T01:10:26.837Z,100410.59
2023-10-20T01:15:29.275Z,100407.59
2023-10-20T01:20:31.991Z,100377.31
2023-10-20T01:25:34.507Z,100378.97
2023-10-20T01:30:36.768Z,100410.91
2023-10-20T01:35:39.076Z,100420.13
2023-10-20T01:40:41.479Z,100402.16
2023-10-20T01:45:43.928Z,100362.03
2023-10-20T01:50:46.525Z,100403.56
2023-10-20T01:55:51.198Z,100426.88
2023-10-20T02:00:54.102Z,100390.13
2023-10-20T02:05:56.344Z,100390.44
2023-10-20T02:10:58.618Z,100381.97
2023-10-20T02:16:01.111Z,100410.72
2023-10-20T02:21:09.521Z,100407.94
2023-10-20T02:26:12.692Z,100369.38
2023-10-20T02:31:19.190Z,100391.31
2023-10-20T02:36:23.504Z,100404.97
2023-10-20T02:41:25.913Z,100380.09
2023-10-20T02:46:28.332Z,100397.47
2023-10-20T02:51:30.637Z,100387.00
2023-10-20T02:56:33.007Z,100369.97
2023-10-20T03:01:35.310Z,100382.75
2023-10-20T03:06:37.632Z,100352.72
2023-10-20T03:11:39.957Z,100349.53
2023-10-20T03:16:44.584Z,100361.88
2023-10-20T03:21:46.852Z,100344.56
2023-10-20T03:26:49.827Z,100363.88
2023-10-20T03:31:52.218Z,100357.81
2023-10-20T03:36:54.504Z,100347.88
2023-10-20T03:41:56.823Z,100343.81
2023-10-20T03:46:59.139Z,100356.13
2023-10-20T03:52:02.280Z,100377.50
2023-10-20T03:57:05.172Z,100355.28
2023-10-20T04:02:07.490Z,100341.28
2023-10-20T04:07:09.945Z,100367.13
2023-10-20T04:12:12.886Z,100326.56
2023-10-20T04:17:17.667Z,100355.13
2023-10-20T04:22:20.207Z,100335.91
2023-10-20T04:27:42.310Z,100355.06
2023-10-20T04:33:06.574Z,100320.47
2023-10-20T04:38:27.333Z,100331.78
2023-10-20T04:43:35.841Z,100363.38
2023-10-20T04:48:56.736Z,100377.28
2023-10-20T04:54:23.957Z,100354.53
2023-10-20T04:59:26.236Z,100361.38
2023-10-20T05:04:40.232Z,100371.00
2023-10-20T05:09:45.850Z,100377.22
2023-10-20T05:14:51.411Z,100342.34
2023-10-20T05:19:55.230Z,100344.09
2023-10-20T05:24:57.491Z,100358.28
2023-10-20T05:30:00.013Z,100376.84
2023-10-20T05:35:02.908Z,100354.00
2023-10-20T05:40:06.195Z,100405.47
2023-10-20T05:45:11.785Z,100381.94
2023-10-20T05:50:15.092Z,100426.22
2023-10-20T05:55:17.648Z,100417.16
2023-10-20T06:00:20.074Z,100367.00
2023-10-20T06:05:22.870Z,100431.19
2023-10-20T06:10:25.138Z,100391.66
2023-10-20T06:15:28.071Z,100406.97
2023-10-20T06:20:30.357Z,100429.88
2023-10-20T06:25:33.500Z,100453.75
2023-10-20T06:30:43.958Z,100414.53
2023-10-20T06:35:53.119Z,100440.94
2023-10-20T06:40:55.492Z,100423.06
2023-10-20T06:45:59.125Z,100436.72
2023-10-20T06:51:01.780Z,100442.69
2023-10-20T06:56:14.413Z,100440.78
2023-10-20T07:01:19.770Z,100480.03
2023-10-20T07:06:22.369Z,100435.69
2023-10-20T07:11:25.889Z,100439.47
2023-10-20T07:16:29.000Z,100480.34
2023-10-20T07:21:32.095Z,100487.44
2023-10-20T07:26:34.608Z,100497.94
2023-10-20T07:31:39.631Z,100464.19
2023-10-20T07:36:42.401Z,100473.03
2023-10-20T07:41:45.976Z,100473.28
2023-10-20T07:46:48.350Z,100495.59
2023-10-20T07:51:50.604Z,100469.97
2023-10-20T07:56:53.163Z,100457.78
2023-10-20T08:01:55.439Z,100469.25
2023-10-20T08:07:00.932Z,100441.94
2023-10-20T08:12:14.820Z,100484.25
2023-10-20T08:17:17.804Z,100447.97
2023-10-20T08:22:20.203Z,100443.16
2023-10-20T08:27:22.825Z,100435.38
2023-10-20T08:32:26.418Z,100462.31
2023-10-20T08:37:30.010Z,100453.22
2023-10-20T08:47:35.027Z,100433.81
2023-10-20T08:52:40.026Z,100452.16
2023-10-20T08:57:42.807Z,100457.53
2023-10-20T09:02:45.124Z,100426.72
2023-10-20T09:08:01.012Z,100449.09
2023-10-20T09:13:03.268Z,100423.16
2023-10-20T09:18:10.358Z,100428.78
2023-10-20T09:23:13.692Z,100440.75
2023-10-20T09:28:19.131Z,100456.75
2023-10-20T09:33:22.843Z,100450.91
2023-10-20T09:38:31.259Z,100437.28
2023-10-20T09:43:37.624Z,100423.03
2023-10-20T09:48:42.320Z,100436.00
2023-10-20T09:53:45.896Z,100394.91
2023-10-20T09:58:48.289Z,100386.84
2023-10-20T10:04:10.133Z,100377.91
2023-10-20T10:09:12.511Z,100390.94
2023-10-20T10:14:23.169Z,100359.97
2023-10-20T10:19:27.509Z,100393.47
2023-10-20T10:24:33.751Z,100379.81
2023-10-20T10:30:02.699Z,100351.91
2023-10-20T10:35:06.024Z,100343.75
2023-10-20T10:40:10.424Z,100334.75
2023-10-20T10:45:24.645Z,100351.22
2023-10-20T10:50:27.049Z,100340.56
2023-10-20T10:55:29.541Z,100351.72
2023-10-20T11:00:32.448Z,100309.31
2023-10-20T11:05:35.621Z,100346.44
2023-10-20T11:10:43.898Z,100343.72
2023-10-20T11:15:46.376Z,100327.28
2023-10-20T11:20:51.224Z,100333.75
2023-10-20T11:25:53.635Z,100293.28
2023-10-20T11:30:56.926Z,100329.81
2023-10-20T11:36:01.894Z,100290.94
2023-10-20T11:41:04.274Z,100332.88
2023-10-20T11:46:08.158Z,100296.16
2023-10-20T11:51:12.151Z,100277.19
2023-10-20T11:56:17.012Z,100299.69
2023-10-20T12:01:19.364Z,100260.50
2023-10-20T12:06:22.297Z,100312.06
2023-10-20T12:11:25.757Z,100312.19
2023-10-20T12:16:31.595Z,100316.41
2023-10-20T12:21:34.165Z,100292.16
2023-10-20T12:26:38.381Z,100301.03
2023-10-20T12:31:41.016Z,100289.00
2023-10-20T12:36:44.484Z,100278.28
2023-10-20T12:41:47.441Z,100299.06
2023-10-20T12:46:49.913Z,100304.31
2023-10-20T12:51:52.350Z,100311.22
2023-10-20T12:56:54.711Z,100287.56
2023-10-20T13:01:57.536Z,100298.53
2023-10-20T13:07:01.137Z,100288.09
2023-10-20T13:12:04.054Z,100270.31
2023-10-20T13:17:06.695Z,100281.78
2023-10-20T13:22:08.946Z,100256.94
2023-10-20T13:27:11.780Z,100249.63
2023-10-20T13:32:14.071Z,100286.34
2023-10-20T13:37:16.389Z,100287.06
2023-10-20T13:42:18.663Z,100258.31
2023-10-20T13:47:21.159Z,100247.41
2023-10-20T13:52:23.734Z,100247.31
2023-10-20T13:57:26.463Z,100256.91
2023-10-20T14:02:29.916Z,100257.75
2023-10-20T14:07:33.004Z,100229.38
2023-10-20T14:12:37.217Z,100272.94
2023-10-20T14:17:39.594Z,100247.22
2023-10-20T14:22:41.945Z,100236.19
2023-10-20T14:27:44.249Z,100275.19
2023-10-20T14:32:46.554Z,100254.53
2023-10-20T14:37:48.896Z,100234.69
2023-10-20T14:42:51.158Z,100257.50
2023-10-20T14:47:53.435Z,100248.00
2023-10-20T14:52:57.622Z,100272.84
2023-10-20T14:58:01.050Z,100266.84
2023-10-20T15:03:03.535Z,100272.63
2023-10-20T15:08:06.156Z,100249.78
2023-10-20T15:13:08.828Z,100290.72
2023-10-20T15:18:11.340Z,100254.97
2023-10-20T15:23:18.492Z,100298.19
2023-10-20T15:28:22.427Z,100290.69
2023-10-20T15:33:24.766Z,100306.47
2023-10-20T15:38:27.036Z,100276.38
2023-10-20T15:43:29.672Z,100312.00
2023-10-20T15:48:32.110Z,100289.69
2023-10-20T15:53:37.256Z,100317.50
2023-10-20T15:58:39.630Z,100299.13
2023-10-20T16:03:42.286Z,100320.50
2023-10-20T16:08:44.808Z,100323.81
2023-10-20T16:13:47.080Z,100307.00
2023-10-20T16:18:49.425Z,100315.84
2023-10-20T16:23:52.044Z,100348.97
2023-10-20T16:28:54.381Z,100354.22
2023-10-20T16:33:56.701Z,100356.66
2023-10-20T16:38:59.227Z,100365.16
2023-10-20T16:44:01.564Z,100346.00
2023-10-20T16:49:03.880Z,100355.56
2023-10-20T16:54:06.377Z,100354.75
2023-10-20T16:59:09.281Z,100346.22
2023-10-20T17:04:23.249Z,100394.59
2023-10-20T17:09:25.812Z,100396.19
2023-10-20T17:14:29.208Z,100343.09
2023-10-20T17:19:31.492Z,100385.25
2023-10-20T17:24:34.422Z,100413.94
2023-10-20T17:29:38.129Z,100376.59
2023-10-20T17:34:40.832Z,100389.72
2023-10-20T17:39:43.059Z,100405.13
2023-10-20T17:44:45.416Z,100398.75
2023-10-20T17:49:47.808Z,100400.25
2023-10-20T17:54:51.233Z,100392.50
2023-10-20T17:59:53.645Z,100433.28
2023-10-20T18:04:56.271Z,100387.59
2023-10-20T18:09:58.540Z,100389.13
2023-10-20T18:15:01.137Z,100420.75
2023-10-20T18:20:03.520Z,100421.19
2023-10-20T18:25:07.269Z,100409.66
2023-10-20T18:30:10.314Z,100457.09
2023-10-20T18:35:12.679Z,100395.81
2023-10-20T18:40:15.091Z,100438.44
2023-10-20T18:45:17.434Z,100420.81
2023-10-20T18:50:19.728Z,100436.22
2023-10-20T18:55:22.843Z,100436.47
2023-10-20T19:00:25.303Z,100435.94
2023-10-20T19:05:27.984Z,100427.03
2023-10-20T19:10:31.616Z,100473.16
2023-10-20T19:15:34.797Z,100465.84
2023-10-20T19:20:37.689Z,100463.50
2023-10-20T19:25:41.173Z,100426.00
2023-10-20T19:30:44.077Z,100474.56
2023-10-20T19:35:46.376Z,100449.69
2023-10-20T19:40:49.090Z,100482.50
2023-10-20T19:45:51.985Z,100455.38
2023-10-20T19:50:54.390Z,100477.66
2023-10-20T19:55:56.767Z,100468.75
2023-10-20T20:01:01.947Z,100466.50
2023-10-20T20:06:11.488Z,100462.91
2023-10-20T20:11:16.200Z,100485.59
2023-10-20T20:16:18.498Z,100460.94
2023-10-20T20:21:20.921Z,100487.41
2023-10-20T20:26:23.588Z,100480.72
2023-10-20T20:31:26.996Z,100485.19
2023-10-20T20:36:29.420Z,100476.38
2023-10-20T20:41:32.349Z,100453.13
2023-10-20T20:46:34.867Z,100489.31
2023-10-20T20:51:37.651Z,100440.78
2023-10-20T20:56:39.913Z,100437.19
2023-10-20T21:01:42.611Z,100451.59
2023-10-20T21:06:44.866Z,100452.63
2023-10-20T21:11:47.172Z,100442.03
2023-10-20T21:16:49.541Z,100456.38
2023-10-20T21:21:51.813Z,100444.00
2023-10-20T21:26:57.200Z,100470.53
2023-10-20T21:31:59.705Z,100455.56
2023-10-20T21:37:02.134Z,100436.06
2023-10-20T21:42:06.307Z,100441.41
2023-10-20T21:47:08.732Z,100452.22
2023-10-20T21:52:10.946Z,100450.22
2023-10-20T21:57:13.193Z,100473.06
2023-10-20T22:02:18.080Z,100447.66
2023-10-20T22:07:20.365Z,100480.41
2023-10-20T22:12:22.794Z,100456.22
2023-10-20T22:17:25.175Z,100472.81
2023-10-20T22:22:27.997Z,100434.06
2023-10-20T22:27:30.896Z,100477.63
2023-10-20T22:32:33.527Z,100435.53
2023-10-20T22:37:35.846Z,100459.00
2023-10-20T22:42:38.208Z,100453.03
2023-10-20T22:47:40.575Z,100414.34
2023-10-20T22:52:43.082Z,100452.16
2023-10-20T22:57:45.329Z,100450.91
2023-10-20T23:02:49.564Z,100447.88
2023-10-20T23:07:51.944Z,100483.72
2023-10-20T23:12:54.345Z,100476.84
2023-10-20T23:17:56.759Z,100468.69
2023-10-20T23:22:59.137Z,100456.78
2023-10-20T23:28:01.596Z,100463.53
2023-10-20T23:33:06.067Z,100447.41
2023-10-20T23:38:08.408Z,100478.91
2023-10-20T23:43:10.794Z,100467.38
2023-10-20T23:48:13.120Z,100456.88
2023-10-20T23:53:15.570Z,100477.84
2023-10-20T23:58:18.075Z,100450.03
